createdAt,value
2024-03-19T00:00:11.183Z,7.99
2024-03-19T00:01:11.266Z,7.99
2024-03-19T00:02:11.152Z,7.97
2024-03-19T00:03:11.135Z,8.02
2024-03-19T00:04:11.120Z,8.02
2024-03-19T00:05:11.222Z,8.02
2024-03-19T00:06:11.116Z,8.00
2024-03-19T00:07:11.183Z,7.99
2024-03-19T00:08:11.122Z,8.00
2024-03-19T00:09:11.084Z,8.00
2024-03-19T00:10:11.063Z,7.99
2024-03-19T00:11:11.038Z,8.02
2024-03-19T00:12:11.068Z,7.99
2024-03-19T00:13:11.287Z,7.97
2024-03-19T00:14:11.305Z,7.96
2024-03-19T00:15:11.032Z,7.96
2024-03-19T00:16:10.998Z,7.94
2024-03-19T00:17:10.984Z,7.94
2024-03-19T00:18:11.004Z,7.97
2024-03-19T00:19:10.971Z,7.93
2024-03-19T00:20:11.382Z,7.94
2024-03-19T00:21:10.933Z,7.93
2024-03-19T00:22:10.948Z,7.92
2024-03-19T00:23:10.921Z,7.87
2024-03-19T00:24:10.900Z,7.87
2024-03-19T00:25:10.919Z,7.89
2024-03-19T00:26:11.186Z,7.90
2024-03-19T00:27:10.879Z,7.93
2024-03-19T00:28:10.899Z,7.93
2024-03-19T00:29:10.859Z,7.94
2024-03-19T00:30:10.856Z,7.99
2024-03-19T00:31:10.846Z,7.97
2024-03-19T00:32:11.330Z,7.99
2024-03-19T00:33:11.622Z,7.97
2024-03-19T00:34:10.987Z,7.99
2024-03-19T00:35:10.794Z,7.99
2024-03-19T00:36:10.775Z,7.97
2024-03-19T00:37:11.922Z,7.99
2024-03-19T00:38:10.754Z,7.96
2024-03-19T00:39:10.913Z,7.96
2024-03-19T00:40:11.031Z,7.94
2024-03-19T00:41:10.723Z,7.93
2024-03-19T00:42:10.722Z,7.89
2024-03-19T00:43:10.884Z,7.87
2024-03-19T00:44:11.074Z,7.81
2024-03-19T00:45:10.708Z,7.81
2024-03-19T00:46:11.005Z,7.81
2024-03-19T00:47:10.703Z,7.79
2024-03-19T00:48:11.223Z,7.79
2024-03-19T00:49:10.652Z,7.79
2024-03-19T00:50:10.871Z,7.79
2024-03-19T00:51:10.615Z,7.77
2024-03-19T00:52:10.608Z,7.72
2024-03-19T00:53:10.596Z,7.72
2024-03-19T00:54:10.577Z,7.72
2024-03-19T00:55:10.608Z,7.72
2024-03-19T00:56:10.601Z,7.69
2024-03-19T00:57:10.539Z,7.67
2024-03-19T00:58:10.561Z,7.67
2024-03-19T00:59:10.532Z,7.69
2024-03-19T01:00:10.513Z,7.69
2024-03-19T01:01:10.541Z,7.67
2024-03-19T01:02:10.487Z,7.69
2024-03-19T01:03:10.505Z,7.69
2024-03-19T01:04:10.468Z,7.71
2024-03-19T01:05:10.487Z,7.67
2024-03-19T01:06:10.447Z,7.62
2024-03-19T01:07:10.462Z,7.63
2024-03-19T01:08:10.500Z,7.60
2024-03-19T01:09:10.406Z,7.60
2024-03-19T01:10:10.409Z,7.59
2024-03-19T01:11:10.393Z,7.56
2024-03-19T01:12:10.416Z,7.56
2024-03-19T01:13:10.395Z,7.55
2024-03-19T01:14:10.350Z,7.50
2024-03-19T01:15:10.335Z,7.47
2024-03-19T01:16:10.357Z,7.45
2024-03-19T01:17:10.329Z,7.42
2024-03-19T01:18:10.314Z,7.40
2024-03-19T01:19:10.335Z,7.40
2024-03-19T01:20:10.301Z,7.38
2024-03-19T01:21:10.328Z,7.34
2024-03-19T01:22:10.269Z,7.27
2024-03-19T01:23:10.260Z,7.27
2024-03-19T01:24:10.283Z,7.24
2024-03-19T01:25:10.269Z,7.22
2024-03-19T01:26:10.285Z,7.19
2024-03-19T01:27:10.314Z,7.19
2024-03-19T01:28:10.219Z,7.16
2024-03-19T01:29:10.526Z,7.13
2024-03-19T01:30:10.215Z,7.07
2024-03-19T01:31:10.218Z,7.07
2024-03-19T01:32:10.220Z,7.08
2024-03-19T01:33:10.160Z,7.07
2024-03-19T01:34:10.198Z,7.04
2024-03-19T01:35:10.144Z,7.04
2024-03-19T01:36:10.130Z,7.05
2024-03-19T01:37:10.416Z,7.07
2024-03-19T01:38:10.126Z,7.09
2024-03-19T01:39:10.095Z,7.09
2024-03-19T01:40:10.097Z,7.09
2024-03-19T01:41:10.079Z,7.12
2024-03-19T01:42:10.076Z,7.09
2024-03-19T01:43:10.083Z,7.07
2024-03-19T01:44:10.053Z,7.04
2024-03-19T01:45:10.023Z,6.98
2024-03-19T01:46:10.039Z,6.97
2024-03-19T01:47:10.025Z,6.95
2024-03-19T01:48:09.994Z,6.98
2024-03-19T01:49:10.038Z,6.97
2024-03-19T01:50:09.961Z,6.95
2024-03-19T01:51:09.963Z,6.95
2024-03-19T01:52:10.059Z,6.95
2024-03-19T01:53:10.034Z,6.97
2024-03-19T01:54:09.943Z,6.98
2024-03-19T01:55:10.023Z,6.97
2024-03-19T01:56:10.002Z,6.94
2024-03-19T01:57:09.973Z,6.91
2024-03-19T01:58:09.917Z,6.91
2024-03-19T01:59:09.912Z,6.90
2024-03-19T02:00:09.874Z,6.90
2024-03-19T02:01:09.917Z,6.89
2024-03-19T02:02:09.843Z,6.90
2024-03-19T02:03:09.874Z,6.87
2024-03-19T02:04:09.818Z,6.84
2024-03-19T02:05:12.075Z,6.81
2024-03-19T02:06:09.805Z,6.83
2024-03-19T02:07:09.818Z,6.81
2024-03-19T02:08:09.778Z,6.83
2024-03-19T02:09:09.830Z,6.84
2024-03-19T02:10:09.882Z,6.81
2024-03-19T02:11:09.867Z,6.81
2024-03-19T02:12:09.754Z,6.83
2024-03-19T02:13:09.838Z,6.83
2024-03-19T02:14:09.761Z,6.83
2024-03-19T02:15:09.725Z,6.84
2024-03-19T02:16:09.741Z,6.83
2024-03-19T02:17:09.695Z,6.84
2024-03-19T02:18:09.683Z,6.83
2024-03-19T02:19:09.703Z,6.83
2024-03-19T02:20:09.643Z,6.84
2024-03-19T02:21:09.637Z,6.86
2024-03-19T02:22:09.645Z,6.84
2024-03-19T02:23:09.617Z,6.89
2024-03-19T02:24:09.602Z,6.90
2024-03-19T02:25:09.660Z,6.87
2024-03-19T02:26:09.591Z,6.89
2024-03-19T02:27:09.565Z,6.90
2024-03-19T02:28:09.568Z,6.90
2024-03-19T02:29:09.541Z,6.91
2024-03-19T02:30:09.562Z,6.91
2024-03-19T02:31:09.558Z,6.94
2024-03-19T02:32:09.513Z,6.91
2024-03-19T02:33:09.494Z,6.91
2024-03-19T02:34:09.493Z,6.95
2024-03-19T02:35:09.462Z,6.90
2024-03-19T02:36:09.460Z,6.83
2024-03-19T02:37:09.477Z,6.83
2024-03-19T02:38:09.436Z,6.81
2024-03-19T02:39:09.743Z,6.83
2024-03-19T02:40:09.439Z,6.86
2024-03-19T02:41:09.395Z,6.86
2024-03-19T02:42:09.396Z,6.84
2024-03-19T02:43:09.401Z,6.83
2024-03-19T02:44:09.375Z,6.81
2024-03-19T02:45:09.354Z,6.80
2024-03-19T02:46:09.366Z,6.80
2024-03-19T02:47:09.328Z,6.81
2024-03-19T02:48:09.340Z,6.79
2024-03-19T02:49:09.391Z,6.79
2024-03-19T02:50:09.351Z,6.76
2024-03-19T02:51:09.302Z,6.76
2024-03-19T02:52:09.290Z,6.72
2024-03-19T02:53:09.291Z,6.76
2024-03-19T02:54:09.280Z,6.72
2024-03-19T02:55:09.269Z,6.71
2024-03-19T02:56:09.243Z,6.72
2024-03-19T02:57:09.239Z,6.76
2024-03-19T02:58:09.225Z,6.77
2024-03-19T02:59:09.208Z,6.77
2024-03-19T03:00:09.213Z,6.80
2024-03-19T03:01:09.245Z,6.81
2024-03-19T03:02:09.176Z,6.81
2024-03-19T03:03:09.180Z,6.83
2024-03-19T03:04:09.150Z,6.83
2024-03-19T03:05:09.144Z,6.84
2024-03-19T03:06:09.130Z,6.80
2024-03-19T03:07:09.147Z,6.77
2024-03-19T03:08:09.110Z,6.77
2024-03-19T03:09:09.107Z,6.76
2024-03-19T03:10:09.095Z,6.73
2024-03-19T03:11:09.104Z,6.73
2024-03-19T03:12:09.089Z,6.69
2024-03-19T03:13:09.071Z,6.68
2024-03-19T03:14:09.062Z,6.65
2024-03-19T03:15:09.043Z,6.66
2024-03-19T03:16:09.036Z,6.65
2024-03-19T03:17:09.018Z,6.65
2024-03-19T03:18:09.247Z,6.66
2024-03-19T03:19:09.041Z,6.65
2024-03-19T03:20:08.988Z,6.65
2024-03-19T03:21:08.973Z,6.63
2024-03-19T03:22:08.982Z,6.58
2024-03-19T03:23:08.968Z,6.54
2024-03-19T03:24:08.938Z,6.53
2024-03-19T03:25:08.958Z,6.51
2024-03-19T03:26:08.917Z,6.50
2024-03-19T03:27:08.907Z,6.46
2024-03-19T03:28:08.900Z,6.46
2024-03-19T03:29:08.941Z,6.41
2024-03-19T03:30:08.897Z,6.40
2024-03-19T03:31:08.905Z,6.38
2024-03-19T03:32:08.903Z,6.36
2024-03-19T03:33:08.886Z,6.35
2024-03-19T03:34:08.847Z,6.33
2024-03-19T03:35:08.862Z,6.29
2024-03-19T03:36:08.818Z,6.26
2024-03-19T03:37:13.952Z,6.22
2024-03-19T03:38:08.795Z,6.16
2024-03-19T03:39:08.775Z,6.10
2024-03-19T03:40:08.775Z,6.06
2024-03-19T03:41:08.786Z,6.04
2024-03-19T03:42:08.795Z,6.01
2024-03-19T03:43:09.215Z,5.95
2024-03-19T03:44:08.736Z,5.92
2024-03-19T03:45:08.733Z,5.92
2024-03-19T03:46:08.714Z,5.88
2024-03-19T03:47:08.685Z,5.85
2024-03-19T03:48:08.694Z,5.81
2024-03-19T03:49:08.684Z,5.77
2024-03-19T03:50:08.670Z,5.68
2024-03-19T03:51:08.659Z,5.66
2024-03-19T03:52:08.641Z,5.63
2024-03-19T03:53:08.660Z,5.60
2024-03-19T03:54:08.614Z,5.59
2024-03-19T03:55:08.611Z,5.59
2024-03-19T03:56:08.598Z,5.57
2024-03-19T03:57:08.614Z,5.57
2024-03-19T03:58:08.587Z,5.57
2024-03-19T03:59:08.584Z,5.50
2024-03-19T04:00:08.543Z,5.49
2024-03-19T04:01:08.549Z,5.48
2024-03-19T04:02:08.524Z,5.43
2024-03-19T04:03:08.503Z,5.45
2024-03-19T04:04:08.517Z,5.38
2024-03-19T04:05:08.503Z,5.40
2024-03-19T04:06:08.493Z,5.37
2024-03-19T04:07:08.514Z,5.35
2024-03-19T04:08:10.902Z,5.35
2024-03-19T04:09:08.464Z,5.34
2024-03-19T04:10:08.448Z,5.34
2024-03-19T04:11:08.439Z,5.31
2024-03-19T04:12:08.428Z,5.32
2024-03-19T04:13:08.419Z,5.35
2024-03-19T04:14:08.383Z,5.35
2024-03-19T04:15:08.389Z,5.37
2024-03-19T04:16:08.367Z,5.38
2024-03-19T04:17:08.356Z,5.40
2024-03-19T04:18:08.358Z,5.41
2024-03-19T04:19:08.347Z,5.43
2024-03-19T04:20:08.319Z,5.43
2024-03-19T04:21:08.320Z,5.45
2024-03-19T04:22:08.302Z,5.45
2024-03-19T04:23:08.282Z,5.46
2024-03-19T04:24:08.290Z,5.46
2024-03-19T04:25:08.278Z,5.46
2024-03-19T04:26:08.278Z,5.40
2024-03-19T04:27:08.248Z,5.38
2024-03-19T04:28:08.234Z,5.38
2024-03-19T04:29:08.239Z,5.37
2024-03-19T04:30:08.233Z,5.34
2024-03-19T04:31:08.214Z,5.34
2024-03-19T04:32:08.206Z,5.32
2024-03-19T04:33:08.206Z,5.30
2024-03-19T04:34:08.174Z,5.30
2024-03-19T04:35:08.164Z,5.28
2024-03-19T04:36:08.156Z,5.25
2024-03-19T04:37:08.157Z,5.25
2024-03-19T04:38:08.158Z,5.23
2024-03-19T04:39:08.116Z,5.17
2024-03-19T04:40:08.119Z,5.12
2024-03-19T04:41:08.096Z,5.10
2024-03-19T04:42:08.085Z,5.07
2024-03-19T04:43:08.092Z,5.05
2024-03-19T04:44:08.066Z,5.05
2024-03-19T04:45:08.047Z,5.05
2024-03-19T04:46:08.048Z,5.04
2024-03-19T04:47:08.038Z,5.02
2024-03-19T04:48:08.051Z,5.04
2024-03-19T04:49:08.025Z,5.02
2024-03-19T04:50:08.120Z,5.01
2024-03-19T04:51:07.986Z,4.99
2024-03-19T04:52:10.580Z,4.98
2024-03-19T04:53:07.966Z,4.96
2024-03-19T04:54:07.962Z,4.95
2024-03-19T04:55:07.968Z,4.94
2024-03-19T04:56:07.930Z,4.94
2024-03-19T04:57:07.923Z,4.92
2024-03-19T04:58:07.927Z,4.91
2024-03-19T04:59:07.902Z,4.91
2024-03-19T05:00:07.981Z,4.86
2024-03-19T05:01:07.908Z,4.84
2024-03-19T05:02:07.884Z,4.80
2024-03-19T05:03:07.851Z,4.79
2024-03-19T05:04:07.861Z,4.77
2024-03-19T05:05:07.910Z,4.77
2024-03-19T05:06:07.831Z,4.76
2024-03-19T05:07:07.821Z,4.76
2024-03-19T05:08:07.823Z,4.73
2024-03-19T05:09:07.804Z,4.73
2024-03-19T05:10:07.785Z,4.72
2024-03-19T05:11:07.773Z,4.72
2024-03-19T05:12:07.755Z,4.72
2024-03-19T05:13:07.798Z,4.72
2024-03-19T05:14:07.756Z,4.70
2024-03-19T05:15:07.737Z,4.65
2024-03-19T05:16:07.711Z,4.64
2024-03-19T05:17:07.713Z,4.64
2024-03-19T05:18:07.695Z,4.61
2024-03-19T05:19:07.705Z,4.61
2024-03-19T05:20:07.700Z,4.59
2024-03-19T05:21:07.668Z,4.58
2024-03-19T05:22:07.663Z,4.57
2024-03-19T05:23:07.640Z,4.55
2024-03-19T05:24:07.764Z,4.58
2024-03-19T05:25:07.644Z,4.58
2024-03-19T05:26:07.656Z,4.58
2024-03-19T05:27:07.651Z,4.59
2024-03-19T05:28:07.640Z,4.59
2024-03-19T05:29:07.667Z,4.61
2024-03-19T05:30:07.807Z,4.57
2024-03-19T05:31:07.638Z,4.55
2024-03-19T05:32:07.548Z,4.55
2024-03-19T05:33:07.525Z,4.55
2024-03-19T05:34:07.520Z,4.57
2024-03-19T05:35:07.511Z,4.57
2024-03-19T05:36:07.499Z,4.57
2024-03-19T05:37:07.514Z,4.55
2024-03-19T05:38:07.475Z,4.55
2024-03-19T05:39:07.472Z,4.57
2024-03-19T05:40:07.471Z,4.58
2024-03-19T05:41:07.442Z,4.54
2024-03-19T05:42:07.463Z,4.54
2024-03-19T05:43:07.456Z,4.55
2024-03-19T05:44:07.418Z,4.54
2024-03-19T05:45:07.420Z,4.54
2024-03-19T05:46:07.421Z,4.55
2024-03-19T05:47:07.381Z,4.54
2024-03-19T05:48:07.369Z,4.54
2024-03-19T05:49:07.377Z,4.54
2024-03-19T05:50:07.354Z,4.54
2024-03-19T05:51:07.332Z,4.52
2024-03-19T05:52:07.325Z,4.51
2024-03-19T05:53:07.312Z,4.47
2024-03-19T05:54:07.308Z,4.47
2024-03-19T05:55:07.328Z,4.52
2024-03-19T05:56:07.304Z,4.52
2024-03-19T05:57:07.281Z,4.55
2024-03-19T05:58:07.259Z,4.57
2024-03-19T05:59:07.252Z,4.59
2024-03-19T06:00:07.235Z,4.61
2024-03-19T06:01:07.250Z,4.62
2024-03-19T06:02:07.218Z,4.65
2024-03-19T06:03:07.197Z,4.67
2024-03-19T06:04:07.192Z,4.69
2024-03-19T06:05:07.188Z,4.70
2024-03-19T06:06:07.175Z,4.70
2024-03-19T06:07:07.176Z,4.70
2024-03-19T06:08:07.154Z,4.72
2024-03-19T06:09:07.175Z,4.72
2024-03-19T06:10:07.137Z,4.73
2024-03-19T06:11:07.117Z,4.75
2024-03-19T06:12:07.461Z,4.77
2024-03-19T06:13:07.131Z,4.80
2024-03-19T06:14:07.080Z,4.83
2024-03-19T06:15:07.132Z,4.83
2024-03-19T06:16:07.083Z,4.83
2024-03-19T06:17:07.142Z,4.84
2024-03-19T06:18:07.135Z,4.86
2024-03-19T06:19:18.301Z,4.88
2024-03-19T06:20:07.039Z,4.77
2024-03-19T06:21:07.054Z,4.77
2024-03-19T06:22:07.000Z,4.79
2024-03-19T06:23:07.014Z,4.84
2024-03-19T06:24:07.036Z,4.86
2024-03-19T06:25:07.015Z,4.89
2024-03-19T06:26:07.031Z,4.95
2024-03-19T06:27:07.052Z,4.99
2024-03-19T06:28:06.989Z,5.02
2024-03-19T06:29:06.999Z,5.05
2024-03-19T06:30:06.981Z,5.05
2024-03-19T06:31:07.069Z,5.09
2024-03-19T06:32:06.893Z,5.09
2024-03-19T06:33:06.877Z,5.09
2024-03-19T06:34:06.879Z,5.09
2024-03-19T06:35:06.893Z,5.10
2024-03-19T06:36:06.859Z,5.12
2024-03-19T06:37:06.869Z,5.10
2024-03-19T06:38:06.845Z,5.13
2024-03-19T06:39:06.840Z,5.14
2024-03-19T06:40:06.816Z,5.19
2024-03-19T06:41:06.798Z,5.20
2024-03-19T06:42:06.784Z,5.20
2024-03-19T06:43:06.792Z,5.20
2024-03-19T06:44:06.779Z,5.25
2024-03-19T06:45:06.747Z,5.25
2024-03-19T06:46:06.738Z,5.28
2024-03-19T06:47:06.715Z,5.30
2024-03-19T06:48:06.722Z,5.31
2024-03-19T06:49:06.725Z,5.31
2024-03-19T06:50:06.692Z,5.32
2024-03-19T06:51:06.691Z,5.38
2024-03-19T06:52:06.676Z,5.41
2024-03-19T06:53:06.687Z,5.45
2024-03-19T06:54:06.662Z,5.49
2024-03-19T06:55:06.663Z,5.53
2024-03-19T06:56:06.633Z,5.55
2024-03-19T06:57:06.617Z,5.57
2024-03-19T06:58:06.629Z,5.59
2024-03-19T06:59:06.604Z,5.63
2024-03-19T07:00:06.591Z,5.64
2024-03-19T07:01:06.594Z,5.68
2024-03-19T07:02:06.557Z,5.68
2024-03-19T07:03:06.569Z,5.68
2024-03-19T07:04:07.563Z,5.70
2024-03-19T07:05:06.533Z,5.71
2024-03-19T07:06:07.142Z,5.77
2024-03-19T07:07:06.763Z,5.73
2024-03-19T07:08:06.494Z,5.75
2024-03-19T07:09:06.481Z,5.77
2024-03-19T07:10:06.739Z,5.82
2024-03-19T07:11:06.475Z,5.83
2024-03-19T07:12:06.455Z,5.86
2024-03-19T07:13:06.489Z,5.86
2024-03-19T07:14:06.429Z,5.86
2024-03-19T07:15:06.672Z,5.89
2024-03-19T07:16:06.640Z,5.91
2024-03-19T07:17:06.436Z,5.93
2024-03-19T07:18:06.635Z,5.96
2024-03-19T07:19:06.439Z,6.01
2024-03-19T07:20:06.371Z,6.04
2024-03-19T07:21:06.616Z,6.09
2024-03-19T07:22:06.348Z,6.16
2024-03-19T07:23:06.336Z,6.21
2024-03-19T07:24:06.337Z,6.25
2024-03-19T07:25:06.592Z,6.29
2024-03-19T07:26:06.302Z,6.33
2024-03-19T07:27:06.292Z,6.36
2024-03-19T07:28:06.284Z,6.43
2024-03-19T07:29:06.423Z,6.48
2024-03-19T07:30:06.259Z,6.54
2024-03-19T07:31:06.258Z,6.58
2024-03-19T07:32:06.241Z,6.63
2024-03-19T07:33:06.419Z,6.66
2024-03-19T07:34:06.232Z,6.76
2024-03-19T07:35:06.214Z,6.81
2024-03-19T07:36:06.232Z,6.86
2024-03-19T07:37:06.291Z,6.91
2024-03-19T07:38:06.183Z,6.98
2024-03-19T07:39:06.155Z,7.04
2024-03-19T07:40:06.440Z,7.12
2024-03-19T07:41:06.137Z,7.15
2024-03-19T07:42:06.366Z,7.22
2024-03-19T07:43:06.185Z,7.24
2024-03-19T07:44:06.341Z,7.26
2024-03-19T07:45:06.348Z,7.26
2024-03-19T07:46:06.080Z,7.24
2024-03-19T07:47:06.066Z,7.15
2024-03-19T07:48:06.081Z,7.13
2024-03-19T07:49:06.092Z,7.13
2024-03-19T07:50:06.038Z,7.15
2024-03-19T07:51:06.039Z,7.19
2024-03-19T07:52:06.025Z,7.20
2024-03-19T07:53:06.004Z,7.22
2024-03-19T07:54:06.230Z,7.26
2024-03-19T07:55:06.025Z,7.29
2024-03-19T07:56:05.975Z,7.34
2024-03-19T07:57:05.976Z,7.34
2024-03-19T07:58:05.983Z,7.40
2024-03-19T07:59:06.001Z,7.40
2024-03-19T08:00:06.216Z,7.37
2024-03-19T08:01:06.166Z,7.40
2024-03-19T08:02:05.906Z,7.41
2024-03-19T08:03:05.896Z,7.45
2024-03-19T08:04:06.299Z,7.49
2024-03-19T08:05:06.096Z,7.56
2024-03-19T08:06:06.041Z,7.56
2024-03-19T08:07:06.026Z,7.53
2024-03-19T08:08:05.867Z,7.53
2024-03-19T08:09:05.856Z,7.56
2024-03-19T08:10:05.849Z,7.56
2024-03-19T08:11:05.811Z,7.60
2024-03-19T08:12:05.803Z,7.63
2024-03-19T08:13:05.832Z,7.69
2024-03-19T08:14:06.013Z,7.75
2024-03-19T08:15:05.769Z,7.78
2024-03-19T08:16:05.766Z,7.81
2024-03-19T08:17:05.740Z,7.84
2024-03-19T08:18:05.748Z,7.87
2024-03-19T08:19:05.754Z,7.90
2024-03-19T08:20:05.706Z,7.92
2024-03-19T08:21:05.704Z,7.92
2024-03-19T08:22:05.932Z,7.84
2024-03-19T08:23:05.940Z,7.85
2024-03-19T08:24:05.672Z,7.77
2024-03-19T08:25:05.711Z,7.78
2024-03-19T08:26:05.658Z,7.82
2024-03-19T08:27:05.899Z,7.87
2024-03-19T08:28:05.644Z,7.89
2024-03-19T08:29:05.614Z,7.93
2024-03-19T08:30:06.732Z,7.96
2024-03-19T08:31:07.116Z,7.99
2024-03-19T08:32:05.576Z,8.02
2024-03-19T08:33:05.727Z,8.08
2024-03-19T08:34:05.721Z,8.10
2024-03-19T08:35:05.798Z,8.12
2024-03-19T08:36:05.546Z,8.17
2024-03-19T08:37:05.784Z,8.21
2024-03-19T08:38:05.506Z,8.28
2024-03-19T08:39:05.734Z,8.32
2024-03-19T08:40:05.504Z,8.36
2024-03-19T08:41:05.481Z,8.44
2024-03-19T08:42:06.916Z,8.48
2024-03-19T08:43:05.506Z,8.44
2024-03-19T08:44:05.447Z,8.44
2024-03-19T08:45:05.450Z,8.44
2024-03-19T08:46:05.430Z,8.50
2024-03-19T08:47:05.411Z,8.53
2024-03-19T08:48:05.676Z,8.55
2024-03-19T08:49:05.431Z,8.44
2024-03-19T08:50:05.391Z,8.39
2024-03-19T08:51:05.369Z,8.42
2024-03-19T08:52:05.355Z,8.47
2024-03-19T08:53:05.348Z,8.54
2024-03-19T08:54:05.342Z,8.50
2024-03-19T08:55:05.340Z,8.47
2024-03-19T08:56:05.322Z,8.48
2024-03-19T08:57:05.952Z,8.50
2024-03-19T08:58:05.307Z,8.51
2024-03-19T08:59:05.288Z,8.55
2024-03-19T09:00:05.277Z,8.50
2024-03-19T09:01:05.311Z,8.51
2024-03-19T09:02:05.403Z,8.51
2024-03-19T09:03:05.252Z,8.55
2024-03-19T09:04:05.228Z,8.54
2024-03-19T09:05:05.223Z,8.60
2024-03-19T09:06:05.223Z,8.63
2024-03-19T09:07:05.243Z,8.63
2024-03-19T09:08:05.418Z,8.68
2024-03-19T09:09:05.369Z,8.76
2024-03-19T09:10:05.172Z,8.86
2024-03-19T09:11:05.193Z,8.88
2024-03-19T09:12:05.144Z,8.88
2024-03-19T09:13:05.144Z,8.86
2024-03-19T09:14:05.285Z,8.86
2024-03-19T09:15:05.116Z,8.87
2024-03-19T09:16:05.139Z,8.90
2024-03-19T09:17:05.319Z,8.91
2024-03-19T09:18:05.068Z,8.88
2024-03-19T09:19:05.346Z,8.91
2024-03-19T09:20:05.067Z,8.91
2024-03-19T09:21:05.048Z,8.91
2024-03-19T09:22:05.027Z,8.87
2024-03-19T09:23:05.015Z,8.88
2024-03-19T09:24:05.008Z,8.88
2024-03-19T09:25:07.825Z,8.91
2024-03-19T09:26:04.995Z,8.96
2024-03-19T09:27:05.213Z,9.02
2024-03-19T09:28:05.137Z,9.10
2024-03-19T09:29:04.957Z,9.15
2024-03-19T09:30:04.943Z,9.24
2024-03-19T09:31:04.961Z,9.32
2024-03-19T09:32:04.941Z,9.42
2024-03-19T09:33:04.902Z,9.52
2024-03-19T09:34:05.139Z,9.61
2024-03-19T09:35:05.136Z,9.61
2024-03-19T09:36:05.129Z,9.67
2024-03-19T09:37:04.903Z,9.73
2024-03-19T09:38:04.859Z,9.78
2024-03-19T09:39:05.084Z,9.83
2024-03-19T09:40:04.851Z,9.93
2024-03-19T09:41:04.821Z,9.93
2024-03-19T09:42:04.820Z,9.97
2024-03-19T09:43:04.824Z,10.01
2024-03-19T09:44:05.025Z,10.01
2024-03-19T09:45:04.786Z,9.99
2024-03-19T09:46:04.767Z,9.99
2024-03-19T09:47:04.925Z,10.01
2024-03-19T09:48:04.769Z,10.04
2024-03-19T09:49:04.772Z,10.04
2024-03-19T09:50:04.764Z,10.04
2024-03-19T09:51:04.887Z,10.09
2024-03-19T09:52:04.734Z,10.14
2024-03-19T09:53:05.567Z,10.18
2024-03-19T09:54:06.421Z,10.21
2024-03-19T09:55:04.690Z,10.25
2024-03-19T09:56:04.687Z,10.26
2024-03-19T09:57:04.889Z,10.32
2024-03-19T09:58:04.633Z,10.37
2024-03-19T09:59:04.633Z,10.37
2024-03-19T10:00:04.658Z,10.34
2024-03-19T10:01:04.880Z,10.34
2024-03-19T10:02:04.614Z,10.37
2024-03-19T10:03:04.760Z,10.42
2024-03-19T10:04:04.574Z,10.46
2024-03-19T10:05:04.589Z,10.46
2024-03-19T10:06:04.732Z,10.51
2024-03-19T10:07:04.719Z,10.51
2024-03-19T10:08:04.528Z,10.55
2024-03-19T10:09:04.580Z,10.53
2024-03-19T10:10:04.745Z,10.44
2024-03-19T10:11:04.488Z,10.47
2024-03-19T10:12:04.491Z,10.56
2024-03-19T10:13:04.494Z,10.65
2024-03-19T10:14:04.622Z,10.73
2024-03-19T10:15:05.095Z,10.81
2024-03-19T10:16:04.478Z,10.86
2024-03-19T10:17:04.605Z,10.83
2024-03-19T10:18:04.646Z,10.78
2024-03-19T10:19:04.424Z,10.77
2024-03-19T10:20:04.646Z,10.80
2024-03-19T10:21:04.428Z,10.89
2024-03-19T10:22:04.380Z,10.94
2024-03-19T10:23:04.381Z,11.01
2024-03-19T10:24:04.624Z,11.07
2024-03-19T10:25:04.376Z,11.01
2024-03-19T10:26:04.611Z,11.02
2024-03-19T10:27:04.344Z,11.01
2024-03-19T10:28:04.334Z,10.98
2024-03-19T10:29:04.980Z,10.99
2024-03-19T10:30:04.553Z,10.98
2024-03-19T10:31:04.364Z,10.98
2024-03-19T10:32:11.500Z,10.99
2024-03-19T10:33:04.262Z,11.03
2024-03-19T10:34:04.418Z,11.14
2024-03-19T10:35:04.253Z,11.16
2024-03-19T10:36:04.252Z,11.19
2024-03-19T10:37:04.244Z,11.17
2024-03-19T10:38:04.230Z,11.24
2024-03-19T10:39:04.206Z,11.29
2024-03-19T10:40:04.211Z,11.28
2024-03-19T10:41:04.329Z,11.29
2024-03-19T10:42:04.158Z,11.38
2024-03-19T10:43:04.186Z,11.46
2024-03-19T10:44:04.307Z,11.50
2024-03-19T10:45:04.147Z,11.56
2024-03-19T10:46:04.129Z,11.64
2024-03-19T10:47:04.169Z,11.77
2024-03-19T10:48:04.317Z,11.85
2024-03-19T10:49:04.142Z,11.93
2024-03-19T10:50:04.104Z,11.97
2024-03-19T10:51:04.102Z,12.01
2024-03-19T10:52:09.453Z,12.11
2024-03-19T10:53:04.104Z,12.20
2024-03-19T10:54:04.262Z,12.26
2024-03-19T10:55:04.042Z,12.27
2024-03-19T10:56:04.029Z,12.29
2024-03-19T10:57:04.021Z,12.34
2024-03-19T10:58:03.983Z,12.34
2024-03-19T10:59:04.001Z,12.30
2024-03-19T11:00:04.216Z,12.26
2024-03-19T11:01:03.962Z,12.30
2024-03-19T11:02:03.947Z,12.34
2024-03-19T11:03:04.186Z,12.37
2024-03-19T11:04:03.928Z,12.39
2024-03-19T11:05:04.156Z,12.42
2024-03-19T11:06:03.938Z,12.48
2024-03-19T11:07:04.146Z,12.56
2024-03-19T11:08:04.107Z,12.60
2024-03-19T11:09:03.866Z,12.57
2024-03-19T11:10:04.132Z,12.56
2024-03-19T11:11:03.849Z,12.54
2024-03-19T11:12:04.073Z,12.59
2024-03-19T11:13:04.093Z,12.63
2024-03-19T11:14:04.073Z,12.62
2024-03-19T11:15:03.791Z,12.63
2024-03-19T11:16:03.942Z,12.66
2024-03-19T11:17:04.021Z,12.69
2024-03-19T11:18:04.018Z,12.64
2024-03-19T11:19:03.999Z,12.66
2024-03-19T11:20:03.996Z,12.56
2024-03-19T11:21:03.972Z,12.51
2024-03-19T11:22:03.731Z,12.49
2024-03-19T11:23:03.714Z,12.46
2024-03-19T11:24:03.714Z,12.54
2024-03-19T11:25:03.946Z,12.63
2024-03-19T11:27:10.692Z,12.77
2024-03-19T11:28:04.141Z,12.87
2024-03-19T11:29:04.146Z,12.93
2024-03-19T11:30:04.354Z,12.95
2024-03-19T11:31:03.747Z,13.00
2024-03-19T11:32:03.665Z,13.06
2024-03-19T11:33:03.904Z,13.11
2024-03-19T11:34:03.946Z,13.15
2024-03-19T11:35:04.030Z,13.18
2024-03-19T11:36:03.741Z,13.09
2024-03-19T11:37:03.712Z,13.09
2024-03-19T11:38:03.551Z,13.15
2024-03-19T11:39:03.551Z,13.18
2024-03-19T11:40:03.705Z,13.17
2024-03-19T11:41:09.746Z,13.12
2024-03-19T11:42:03.546Z,13.12
2024-03-19T11:43:03.526Z,13.17
2024-03-19T11:44:03.584Z,13.21
2024-03-19T11:45:03.879Z,13.29
2024-03-19T11:46:03.541Z,13.32
2024-03-19T11:47:03.459Z,13.36
2024-03-19T11:48:03.502Z,13.33
2024-03-19T11:49:03.515Z,13.29
2024-03-19T11:50:03.476Z,13.33
2024-03-19T11:51:03.463Z,13.41
2024-03-19T11:52:03.427Z,13.43
2024-03-19T11:53:03.402Z,13.47
2024-03-19T11:54:03.408Z,13.55
2024-03-19T11:55:03.401Z,13.62
2024-03-19T11:56:03.436Z,13.63
2024-03-19T11:57:03.418Z,13.63
2024-03-19T11:58:03.336Z,13.73
2024-03-19T11:59:03.384Z,13.83
2024-03-19T12:00:03.356Z,13.94
2024-03-19T12:01:03.946Z,14.04
2024-03-19T12:02:03.319Z,14.16
2024-03-19T12:03:03.579Z,14.28
2024-03-19T12:04:03.575Z,14.38
2024-03-19T12:05:03.398Z,14.44
2024-03-19T12:06:03.380Z,14.53
2024-03-19T12:07:03.391Z,14.60
2024-03-19T12:08:03.336Z,14.62
2024-03-19T12:09:03.994Z,14.60
2024-03-19T12:10:03.969Z,14.56
2024-03-19T12:11:03.306Z,14.47
2024-03-19T12:12:03.464Z,14.52
2024-03-19T12:13:03.553Z,14.57
2024-03-19T12:14:03.183Z,14.68
2024-03-19T12:15:03.260Z,14.74
2024-03-19T12:16:03.139Z,14.83
2024-03-19T12:17:03.145Z,14.88
2024-03-19T12:18:03.301Z,14.95
2024-03-19T12:19:03.224Z,14.98
2024-03-19T12:20:03.186Z,14.98
2024-03-19T12:21:03.362Z,14.95
2024-03-19T12:22:03.098Z,14.98
2024-03-19T12:23:03.604Z,14.95
2024-03-19T12:24:03.146Z,14.91
2024-03-19T12:25:03.047Z,14.90
2024-03-19T12:26:03.077Z,14.88
2024-03-19T12:27:03.083Z,14.93
2024-03-19T12:28:03.026Z,15.01
2024-03-19T12:29:03.037Z,15.05
2024-03-19T12:30:03.550Z,15.12
2024-03-19T12:31:03.008Z,15.21
2024-03-19T12:32:02.980Z,15.27
2024-03-19T12:33:03.243Z,15.36
2024-03-19T12:34:02.987Z,15.41
2024-03-19T12:35:02.930Z,15.41
2024-03-19T12:36:02.956Z,15.35
2024-03-19T12:37:02.963Z,15.36
2024-03-19T12:38:02.915Z,15.36
2024-03-19T12:39:03.168Z,15.36
2024-03-19T12:40:02.927Z,15.31
2024-03-19T12:41:02.892Z,15.27
2024-03-19T12:42:02.999Z,15.17
2024-03-19T12:43:02.949Z,15.13
2024-03-19T12:44:02.865Z,15.12
2024-03-19T12:45:02.989Z,15.09
2024-03-19T12:46:02.819Z,15.09
2024-03-19T12:47:02.807Z,15.08
2024-03-19T12:48:02.874Z,15.08
2024-03-19T12:49:02.804Z,15.05
2024-03-19T12:50:02.778Z,14.98
2024-03-19T12:51:02.825Z,14.88
2024-03-19T12:52:02.819Z,14.81
2024-03-19T12:53:02.752Z,14.80
2024-03-19T12:54:02.784Z,14.80
2024-03-19T12:55:02.765Z,14.75
2024-03-19T12:56:02.721Z,14.80
2024-03-19T12:57:02.738Z,14.80
2024-03-19T12:58:02.726Z,14.81
2024-03-19T12:59:02.737Z,14.90
2024-03-19T13:00:02.702Z,14.93
2024-03-19T13:01:02.683Z,14.94
2024-03-19T13:02:02.681Z,14.99
2024-03-19T13:03:02.731Z,15.02
2024-03-19T13:04:02.683Z,15.02
2024-03-19T13:05:02.643Z,15.05
2024-03-19T13:06:02.693Z,15.05
2024-03-19T13:07:02.880Z,15.08
2024-03-19T13:08:02.593Z,15.08
2024-03-19T13:09:02.946Z,15.05
2024-03-19T13:10:02.927Z,15.02
2024-03-19T13:11:02.534Z,15.02
2024-03-19T13:12:02.607Z,15.02